Clarks Hill, Indiana
Current Conditions -  °F | °C
As of 5:35 PM on Monday 22 Dec 2014 (Local Time) from KFKR Reporting Station
Haze Haze  
Wind Chill: 34°   Ceiling: Unl
Heat Index: 40°   Visibility: 5mi
Dew Point: 40°   Wind: 9mph
Humidity: 100%   Direction: 90°E
Pressure: 29.74"   Gusts: NA
Location:  40.25°N, 86.73°W
Report Text: KFKR 222235Z AUTO 09008KT 5SM BR SCT010 SCT025 SCT030 05/05 A2974 RMK AO2 T00450045
Loading
Personal Weather Stations






























Interactive Weather Map New forecast layout! Learn more

10-Day Weather Forecast

Advertisements
Track Severe Weather on mobile